Time;durP1;ratioP1;P1;durP2;ratioP2;P2;SDS_P1;SDS_P2;PMS_P1;PMS_P2;Temp;Humidity;BMP_temperature;BMP_pressure;BME280_temperature;BME280_humidity;BME280_pressure;Samples;Min_cycle;Max_cycle;Signal;HPM_P1;HPM_P2
2023/11/01 00:01:14;;;;;;;17.90;8.38;;;;;;;11.90;100.00;98703.91;5033681;28;20037;-43
2023/11/01 00:03:40;;;;;;;12.02;7.18;;;;;;;11.89;100.00;98697.03;5050128;28;20394;-42
2023/11/01 00:06:06;;;;;;;17.90;8.57;;;;;;;11.89;100.00;98703.06;5034620;28;20088;-43
2023/11/01 00:08:32;;;;;;;16.10;7.95;;;;;;;11.92;100.00;98702.09;5031641;28;20033;-43
2023/11/01 00:10:58;;;;;;;14.80;7.72;;;;;;;11.91;100.00;98686.53;5039392;28;20037;-43
2023/11/01 00:13:24;;;;;;;14.13;6.80;;;;;;;11.94;100.00;98696.78;5032078;28;20045;-42
2023/11/01 00:15:50;;;;;;;14.13;7.45;;;;;;;11.98;100.00;98691.34;5030717;28;20091;-44
2023/11/01 00:18:16;;;;;;;12.20;7.10;;;;;;;11.88;100.00;98658.88;5046677;28;20057;-44
2023/11/01 00:20:42;;;;;;;15.70;7.47;;;;;;;12.02;100.00;98686.78;5035357;28;20041;-44
2023/11/01 00:23:08;;;;;;;17.25;7.57;;;;;;;11.92;100.00;98654.38;5034720;28;20037;-43
2023/11/01 00:25:35;;;;;;;12.38;7.15;;;;;;;11.86;100.00;98642.53;5034231;28;20064;-44
2023/11/01 00:28:01;;;;;;;15.48;8.50;;;;;;;11.76;100.00;98610.13;5036515;28;20051;-42
2023/11/01 00:30:27;;;;;;;20.23;8.45;;;;;;;12.11;100.00;98671.47;5050537;28;20071;-43
2023/11/01 00:32:55;;;;;;;12.75;6.72;;;;;;;12.09;100.00;98654.25;5035006;28;20453;-42
2023/11/01 00:35:21;;;;;;;24.92;8.25;;;;;;;12.08;100.00;98643.00;5033018;28;20087;-43
2023/11/01 00:37:47;;;;;;;8.90;5.40;;;;;;;12.13;100.00;98653.16;5033082;28;20528;-42
2023/11/01 00:40:13;;;;;;;11.63;6.93;;;;;;;12.15;100.00;98648.66;5033018;28;20046;-42
2023/11/01 00:42:38;;;;;;;14.45;6.78;;;;;;;12.17;100.00;98631.19;5053981;28;20041;-42
2023/11/01 00:45:05;;;;;;;15.23;7.22;;;;;;;12.22;100.00;98648.25;5034684;28;20399;-43
2023/11/01 00:47:31;;;;;;;16.55;6.72;;;;;;;12.25;100.00;98635.03;5026238;28;20761;-41
2023/11/01 00:49:57;;;;;;;13.07;7.18;;;;;;;12.30;100.00;98639.97;5034635;28;20045;-45
2023/11/01 00:52:23;;;;;;;18.98;8.18;;;;;;;12.30;100.00;98622.56;5037733;28;20617;-43
2023/11/01 00:54:49;;;;;;;11.95;5.97;;;;;;;12.16;100.00;98601.69;5033813;28;20123;-42
2023/11/01 00:57:15;;;;;;;31.88;7.85;;;;;;;12.33;100.00;98618.97;5038193;28;20065;-42
2023/11/01 00:59:41;;;;;;;14.27;7.38;;;;;;;12.34;100.00;98632.84;5033080;28;20060;-42
2023/11/01 01:02:06;;;;;;;17.50;7.43;;;;;;;12.36;100.00;98631.78;5049900;28;20064;-43
2023/11/01 01:04:33;;;;;;;12.48;7.35;;;;;;;12.40;100.00;98637.69;5036773;28;20037;-43
2023/11/01 01:07:01;;;;;;;18.25;7.10;;;;;;;12.21;99.96;98601.41;5035478;28;20041;-44
2023/11/01 01:09:27;;;;;;;20.67;7.63;;;;;;;12.41;99.85;98632.38;5036186;28;20516;-41
2023/11/01 01:11:53;;;;;;;9.45;5.82;;;;;;;12.35;99.40;98630.16;5031254;28;20053;-43
2023/11/01 01:14:19;;;;;;;12.98;6.35;;;;;;;12.38;100.00;98634.31;5032707;28;20464;-43
2023/11/01 01:16:46;;;;;;;11.05;5.85;;;;;;;12.41;100.00;98628.91;5033419;28;20045;-42
2023/11/01 01:19:12;;;;;;;13.38;6.38;;;;;;;12.44;99.82;98600.09;5039790;28;21928;-42
2023/11/01 01:21:38;;;;;;;12.02;6.82;;;;;;;12.35;99.65;98582.41;5036790;28;20044;-42
2023/11/01 01:24:04;;;;;;;10.93;6.28;;;;;;;12.47;99.43;98608.56;5046581;28;20037;-41
2023/11/01 01:26:30;;;;;;;17.63;7.30;;;;;;;12.47;99.67;98602.50;5045136;28;20095;-42
2023/11/01 01:28:56;;;;;;;11.90;7.43;;;;;;;12.45;99.29;98602.59;5032977;28;20069;-43
2023/11/01 01:31:22;;;;;;;15.25;6.75;;;;;;;12.43;99.61;98593.19;5032967;28;20041;-43
2023/11/01 01:33:48;;;;;;;10.98;6.35;;;;;;;12.42;99.66;98596.72;5034947;28;20106;-43
2023/11/01 01:36:14;;;;;;;12.93;6.00;;;;;;;12.26;99.84;98566.34;5030175;28;20061;-42
2023/11/01 01:38:40;;;;;;;11.90;6.47;;;;;;;12.41;100.00;98597.63;5037964;28;20046;-41
2023/11/01 01:41:06;;;;;;;14.40;7.50;;;;;;;12.42;99.83;98601.94;5048210;28;20049;-43
2023/11/01 01:43:32;;;;;;;12.73;6.90;;;;;;;12.43;100.00;98595.78;5029040;28;20100;-41
2023/11/01 01:46:10;;;;;;;11.02;6.75;;;;;;;12.42;99.68;98584.53;5034028;28;20048;-45
2023/11/01 01:48:37;;;;;;;16.98;7.43;;;;;;;12.42;99.64;98605.38;5047997;28;20144;-43
2023/11/01 01:51:04;;;;;;;12.70;6.55;;;;;;;12.38;99.45;98587.41;5042996;28;20052;-43
2023/11/01 01:53:35;;;;;;;16.90;7.60;;;;;;;12.39;99.55;98589.09;5028210;28;20044;-42
2023/11/01 01:56:02;;;;;;;15.20;7.40;;;;;;;12.40;99.78;98578.59;5034804;28;20045;-43
2023/11/01 01:58:28;;;;;;;12.90;7.45;;;;;;;12.41;99.89;98585.44;5033268;28;20795;-43
2023/11/01 02:00:56;;;;;;;12.27;7.55;;;;;;;12.42;99.83;98568.03;5033322;28;20044;-43
2023/11/01 02:03:23;;;;;;;15.23;6.80;;;;;;;12.45;99.73;98580.91;5034052;28;20044;-42
2023/11/01 02:05:49;;;;;;;14.90;7.45;;;;;;;12.47;99.34;98582.47;5033382;28;20045;-42
2023/11/01 02:08:15;;;;;;;14.43;6.82;;;;;;;12.51;99.25;98586.56;5029602;28;20068;-41
2023/11/01 02:10:42;;;;;;;17.90;7.07;;;;;;;12.56;99.29;98579.31;5015283;28;20437;-42
2023/11/01 02:13:12;;;;;;;13.63;7.15;;;;;;;12.60;98.98;98580.00;5047568;28;20069;-43
2023/11/01 02:15:42;;;;;;;13.85;7.00;;;;;;;12.60;98.69;98586.06;5047161;28;20037;-41
2023/11/01 02:18:09;;;;;;;15.35;7.43;;;;;;;12.62;98.61;98572.91;5032879;28;20044;-43
2023/11/01 02:20:56;;;;;;;9.35;5.38;;;;;;;12.63;98.31;98580.63;5037579;28;20057;-43
2023/11/01 02:23:32;;;;;;;12.98;7.20;;;;;;;12.49;98.30;98548.50;5033497;28;20056;-41
2023/11/01 02:25:59;;;;;;;12.95;7.20;;;;;;;12.65;98.36;98557.94;5047096;28;20037;-43
2023/11/01 02:28:25;;;;;;;12.20;7.43;;;;;;;12.68;98.29;98567.31;5030206;28;20045;-41
2023/11/01 02:30:51;;;;;;;13.48;6.25;;;;;;;12.69;98.25;98553.34;5035766;28;20041;-42
2023/11/01 02:33:17;;;;;;;16.08;7.65;;;;;;;12.68;98.18;98552.50;5031673;28;20095;-42
2023/11/01 02:35:43;;;;;;;21.38;10.45;;;;;;;12.69;98.05;98550.75;5054092;28;20051;-40
2023/11/01 02:38:11;;;;;;;13.13;6.43;;;;;;;12.67;98.30;98558.66;5032179;28;20128;-42
2023/11/01 02:40:37;;;;;;;12.98;7.28;;;;;;;12.55;98.16;98535.13;5030317;28;20054;-42
2023/11/01 02:43:04;;;;;;;11.45;6.93;;;;;;;12.70;98.37;98549.81;5048238;28;20045;-42
2023/11/01 02:45:30;;;;;;;16.02;7.70;;;;;;;12.71;98.14;98554.13;5039333;28;20051;-42
2023/11/01 02:47:56;;;;;;;14.32;7.22;;;;;;;12.69;98.35;98554.19;5047561;28;20046;-42
2023/11/01 02:50:23;;;;;;;9.82;5.60;;;;;;;12.68;98.57;98551.66;5031683;28;20037;-44
2023/11/01 02:52:49;;;;;;;14.30;6.88;;;;;;;12.63;98.79;98545.91;5047802;28;20041;-44
2023/11/01 02:55:16;;;;;;;13.38;7.18;;;;;;;12.65;98.69;98550.09;5032442;28;20505;-43
2023/11/01 02:57:42;;;;;;;14.63;7.50;;;;;;;12.64;98.96;98558.84;5047981;28;20041;-42
2023/11/01 03:00:18;;;;;;;36.22;19.83;;;;;;;12.63;99.32;98558.94;5032090;28;20045;-42
2023/11/01 03:02:49;;;;;;;11.60;6.38;;;;;;;12.62;99.27;98560.69;5035732;28;20049;-44
2023/11/01 03:05:16;;;;;;;13.75;7.00;;;;;;;12.61;99.66;98548.59;5028370;28;20039;-43
2023/11/01 03:07:43;;;;;;;11.70;7.53;;;;;;;12.52;99.32;98538.72;5030999;28;20045;-45
2023/11/01 03:10:10;;;;;;;15.20;7.45;;;;;;;12.64;99.47;98547.59;5032612;28;20140;-42
2023/11/01 03:12:39;;;;;;;15.48;7.13;;;;;;;12.63;99.67;98554.56;5030186;28;20044;-43
2023/11/01 03:15:07;;;;;;;13.77;6.30;;;;;;;12.59;100.00;98539.19;5030088;28;20091;-42
2023/11/01 03:17:35;;;;;;;8.55;4.78;;;;;;;12.59;100.00;98558.28;5031768;28;20049;-43
2023/11/01 03:20:05;;;;;;;14.40;7.03;;;;;;;12.60;100.00;98546.09;5031772;28;20509;-43
2023/11/01 03:22:32;;;;;;;12.20;5.70;;;;;;;12.57;100.00;98538.44;5032443;28;20041;-43
2023/11/01 03:24:58;;;;;;;13.63;6.05;;;;;;;12.57;100.00;98541.91;5032706;28;20075;-43
2023/11/01 03:27:25;;;;;;;10.60;6.10;;;;;;;12.54;100.00;98538.66;5029588;28;20041;-43
2023/11/01 03:29:55;;;;;;;13.10;6.90;;;;;;;12.53;100.00;98542.19;5028142;28;20044;-44
2023/11/01 03:32:22;;;;;;;15.10;7.13;;;;;;;12.50;100.00;98532.78;5021523;28;20229;-41
2023/11/01 03:34:49;;;;;;;13.60;6.68;;;;;;;12.48;100.00;98541.63;5031545;28;20124;-43
2023/11/01 03:37:15;;;;;;;13.02;7.55;;;;;;;12.43;100.00;98539.28;5027920;28;20576;-43
2023/11/01 03:39:41;;;;;;;14.48;7.38;;;;;;;12.25;100.00;98507.34;5053428;28;20045;-42
2023/11/01 03:42:07;;;;;;;14.95;6.60;;;;;;;12.40;100.00;98543.84;5051397;28;20094;-43
2023/11/01 03:44:34;;;;;;;14.30;7.05;;;;;;;12.38;100.00;98537.88;5034184;28;20041;-43
2023/11/01 03:47:01;;;;;;;15.15;5.85;;;;;;;12.17;100.00;98490.50;5039696;28;20041;-42
2023/11/01 03:49:29;;;;;;;16.13;7.85;;;;;;;12.27;100.00;98500.28;5043978;28;20133;-43
2023/11/01 03:52:00;;;;;;;16.38;7.53;;;;;;;12.02;100.00;98466.19;5033680;28;20041;-43
2023/11/01 03:54:27;;;;;;;14.38;7.13;;;;;;;12.28;100.00;98509.78;5036253;28;20051;-45
2023/11/01 03:56:53;;;;;;;16.48;7.80;;;;;;;12.28;100.00;98499.34;5034843;28;20041;-41
2023/11/01 03:59:19;;;;;;;13.77;6.82;;;;;;;12.18;100.00;98476.56;5035062;28;20152;-43
2023/11/01 04:01:45;;;;;;;13.57;7.03;;;;;;;12.25;100.00;98490.88;5035665;28;20052;-43
2023/11/01 04:04:11;;;;;;;14.45;7.32;;;;;;;12.27;100.00;98489.00;5050381;28;20091;-43
2023/11/01 04:06:37;;;;;;;13.85;6.30;;;;;;;12.26;100.00;98490.78;5034995;28;20053;-44
2023/11/01 04:09:03;;;;;;;14.57;7.40;;;;;;;12.10;100.00;98466.56;5034957;28;20459;-44
2023/11/01 04:11:30;;;;;;;19.67;8.90;;;;;;;12.26;100.00;98479.50;5035342;28;20157;-40
2023/11/01 04:13:57;;;;;;;16.08;7.75;;;;;;;12.26;100.00;98488.16;5028445;28;20468;-43
2023/11/01 04:16:24;;;;;;;15.00;7.15;;;;;;;12.06;100.00;98465.09;5049932;28;20048;-43
2023/11/01 04:18:50;;;;;;;16.98;8.70;;;;;;;12.28;100.00;98490.69;5030812;28;20048;-43
2023/11/01 04:21:16;;;;;;;11.77;6.97;;;;;;;12.27;100.00;98487.25;5034505;28;20045;-44
2023/11/01 04:23:42;;;;;;;25.40;8.68;;;;;;;12.14;100.00;98467.25;5032120;28;20044;-43
2023/11/01 04:26:08;;;;;;;14.50;7.43;;;;;;;12.35;100.00;98496.38;5035044;28;20049;-43
2023/11/01 04:28:35;;;;;;;13.68;6.55;;;;;;;12.37;100.00;98486.69;5048622;28;20532;-43
2023/11/01 04:31:02;;;;;;;19.67;8.65;;;;;;;12.38;100.00;98486.59;5037763;28;20479;-44
2023/11/01 04:33:31;;;;;;;18.35;8.38;;;;;;;12.10;100.00;98434.47;5034925;28;20517;-42
2023/11/01 04:35:58;;;;;;;;;;;;;;;12.41;100.00;98482.97;5036197;28;20429;-43
2023/11/01 04:38:23;;;;;;;14.45;7.70;;;;;;;12.39;100.00;98477.00;5034670;28;19923;-41
2023/11/01 04:40:49;;;;;;;21.40;8.95;;;;;;;12.39;100.00;98485.69;5049541;28;20041;-45
2023/11/01 04:43:17;;;;;;;17.25;7.85;;;;;;;12.39;100.00;98483.06;5031885;28;20076;-43
2023/11/01 04:45:45;;;;;;;16.60;7.97;;;;;;;12.41;100.00;98483.78;5033128;28;20051;-42
2023/11/01 04:48:11;;;;;;;14.18;8.15;;;;;;;12.45;100.00;98479.25;5044947;28;20818;-42
2023/11/01 04:50:37;;;;;;;15.80;8.88;;;;;;;12.47;100.00;98487.81;5037217;28;20511;-44
2023/11/01 04:53:03;;;;;;;18.30;8.02;;;;;;;12.51;100.00;98491.91;5038187;28;20545;-42
2023/11/01 04:55:29;;;;;;;16.63;7.60;;;;;;;12.54;100.00;98489.13;5033094;28;20072;-42
2023/11/01 04:57:55;;;;;;;12.80;6.30;;;;;;;12.56;100.00;98490.69;5036254;28;20509;-42
2023/11/01 05:00:21;;;;;;;14.65;7.00;;;;;;;12.61;100.00;98496.44;5023112;28;20429;-45
2023/11/01 05:02:47;;;;;;;17.50;7.13;;;;;;;12.70;100.00;98508.09;5043618;28;20136;-42
2023/11/01 05:05:14;;;;;;;18.92;7.50;;;;;;;12.76;100.00;98510.34;5030652;28;20048;-43
2023/11/01 05:07:41;;;;;;;12.93;7.40;;;;;;;12.87;100.00;98507.06;5034580;28;20037;-44
2023/11/01 05:10:07;;;;;;;15.30;7.50;;;;;;;12.96;100.00;98499.50;5041121;28;20037;-43
2023/11/01 05:12:33;;;;;;;13.77;7.40;;;;;;;13.04;100.00;98501.59;5033686;28;20087;-44
2023/11/01 05:15:00;;;;;;;16.55;8.40;;;;;;;13.09;99.61;98500.38;5038451;28;20041;-45
2023/11/01 05:17:28;;;;;;;14.95;7.13;;;;;;;13.21;98.29;98503.19;5032319;28;20120;-42
2023/11/01 05:19:54;;;;;;;14.32;7.07;;;;;;;13.30;97.76;98506.03;5029085;28;20118;-41
2023/11/01 05:22:20;;;;;;;13.68;7.30;;;;;;;13.33;96.67;98498.03;5035824;28;20103;-42
2023/11/01 05:24:47;;;;;;;16.48;7.50;;;;;;;13.38;96.64;98497.72;5047055;28;20524;-43
2023/11/01 05:27:14;;;;;;;12.55;5.80;;;;;;;13.40;96.11;98512.34;5028224;28;20084;-42
2023/11/01 05:29:40;;;;;;;12.27;7.85;;;;;;;13.44;95.12;98516.44;5043509;28;20033;-45
2023/11/01 05:32:06;;;;;;;11.60;6.43;;;;;;;13.52;94.85;98522.00;5039273;28;20045;-42
2023/11/01 05:34:32;;;;;;;16.40;7.63;;;;;;;13.54;94.21;98504.47;5037743;28;20048;-43
2023/11/01 05:36:58;;;;;;;13.55;5.85;;;;;;;13.85;93.06;98513.72;5043386;28;20037;-43
2023/11/01 05:39:24;;;;;;;12.60;5.68;;;;;;;13.90;92.07;98502.97;5045130;28;20079;-43
2023/11/01 05:41:53;;;;;;;17.88;7.70;;;;;;;13.80;91.47;98500.13;5046517;28;20037;-43
2023/11/01 05:44:22;;;;;;;13.45;7.70;;;;;;;13.64;91.99;98489.03;5046753;28;20049;-44
2023/11/01 05:46:51;;;;;;;19.20;7.88;;;;;;;13.89;91.18;98504.75;5042430;28;20051;-43
2023/11/01 05:49:19;;;;;;;16.95;8.20;;;;;;;13.79;90.57;98484.56;5046340;28;20041;-42
2023/11/01 05:51:46;;;;;;;11.80;5.47;;;;;;;14.30;89.26;98503.72;5045161;28;20086;-44
2023/11/01 05:54:12;;;;;;;15.07;5.95;;;;;;;14.50;87.44;98499.81;5046519;28;20064;-41
2023/11/01 05:56:38;;;;;;;12.32;7.03;;;;;;;14.56;86.49;98509.81;5042774;28;20037;-42
2023/11/01 05:59:04;;;;;;;14.85;6.72;;;;;;;14.41;86.27;98509.09;5045682;28;20571;-43
2023/11/01 06:01:30;;;;;;;15.10;7.70;;;;;;;14.30;86.50;98504.56;5025451;28;20447;-42
2023/11/01 06:03:57;;;;;;;14.20;6.68;;;;;;;14.33;86.37;98511.38;5044412;28;20043;-44
2023/11/01 06:06:23;;;;;;;12.07;5.95;;;;;;;14.19;85.84;98487.94;5039280;28;20118;-43
2023/11/01 06:08:53;;;;;;;19.20;6.90;;;;;;;14.41;85.07;98507.31;5038251;28;20551;-43
2023/11/01 06:11:19;;;;;;;11.90;6.15;;;;;;;14.70;84.18;98510.56;5032628;28;20072;-42
2023/11/01 06:13:46;;;;;;;16.08;7.57;;;;;;;14.94;83.02;98509.75;5031329;28;20049;-44
2023/11/01 06:16:12;;;;;;;12.13;6.07;;;;;;;14.97;81.05;98497.28;5032554;28;20132;-42
2023/11/01 06:18:38;;;;;;;13.27;7.70;;;;;;;15.05;81.05;98509.84;5031731;28;20043;-43
2023/11/01 06:21:05;;;;;;;11.48;6.00;;;;;;;14.84;80.83;98501.72;5032756;28;20581;-42
2023/11/01 06:23:34;;;;;;;15.13;6.05;;;;;;;14.64;82.10;98503.13;5034052;28;20049;-42
2023/11/01 06:26:00;;;;;;;14.48;7.32;;;;;;;14.58;81.85;98495.69;5045023;28;20098;-42
2023/11/01 06:28:28;;;;;;;9.80;5.40;;;;;;;14.48;82.40;98519.97;5030640;28;20045;-44
2023/11/01 06:30:56;;;;;;;14.20;7.53;;;;;;;14.38;82.87;98504.94;5049584;28;20064;-43
2023/11/01 06:33:23;;;;;;;15.00;8.05;;;;;;;14.13;83.45;98465.66;5047169;28;20053;-43
2023/11/01 06:35:49;;;;;;;20.05;8.30;;;;;;;14.47;83.23;98498.22;5057643;28;20044;-42
2023/11/01 06:38:16;;;;;;;10.32;5.70;;;;;;;14.55;82.85;98495.09;5032675;28;20574;-43
2023/11/01 06:40:42;;;;;;;20.02;8.15;;;;;;;15.14;81.89;98483.84;5043652;28;20052;-43
2023/11/01 06:43:09;;;;;;;15.52;6.28;;;;;;;15.32;79.71;98479.06;5049253;28;20052;-47
2023/11/01 06:45:37;;;;;;;12.60;5.50;;;;;;;15.92;77.13;98486.81;5038490;28;20786;-41
2023/11/01 06:48:04;;;;;;;13.43;6.95;;;;;;;16.09;75.56;98490.78;5051457;28;20094;-43
2023/11/01 06:50:29;;;;;;;12.07;6.38;;;;;;;16.64;73.18;98495.28;5045727;28;20033;-42
2023/11/01 06:52:55;;;;;;;10.82;6.28;;;;;;;16.73;72.56;98494.56;5047086;28;20520;-42
2023/11/01 06:55:21;;;;;;;11.98;7.00;;;;;;;16.54;72.39;98502.16;5050405;28;20040;-42
2023/11/01 06:57:48;;;;;;;13.30;6.80;;;;;;;16.43;72.11;98487.25;5047338;28;20068;-40
2023/11/01 07:00:15;;;;;;;13.02;6.18;;;;;;;16.00;72.29;98481.00;5023810;28;20048;-41
2023/11/01 07:02:41;;;;;;;17.08;6.07;;;;;;;15.72;73.17;98481.38;5028756;28;20174;-41
2023/11/01 07:05:08;;;;;;;16.48;6.80;;;;;;;15.52;74.01;98496.81;5030300;28;20042;-42
2023/11/01 07:07:34;;;;;;;16.80;6.57;;;;;;;15.61;74.76;98524.94;5043072;28;20041;-42
2023/11/01 07:10:01;;;;;;;12.68;6.72;;;;;;;15.39;75.53;98524.78;5052582;28;20229;-45
2023/11/01 07:12:31;;;;;;;15.38;7.43;;;;;;;15.25;76.24;98517.09;5059980;28;20041;-43
2023/11/01 07:14:57;;;;;;;16.13;8.13;;;;;;;14.95;76.61;98474.78;5049048;28;20056;-42
2023/11/01 07:17:26;;;;;;;15.43;6.43;;;;;;;15.15;76.86;98516.09;5048559;28;20037;-48
2023/11/01 07:19:54;;;;;;;11.95;7.13;;;;;;;15.08;77.45;98505.22;5053857;28;20045;-42
2023/11/01 07:22:21;;;;;;;12.75;6.05;;;;;;;14.95;77.83;98507.03;5044829;28;20041;-43
2023/11/01 07:24:48;;;;;;;12.25;6.65;;;;;;;14.80;78.54;98511.56;5049341;28;20159;-46
2023/11/01 07:27:14;;;;;;;9.63;5.68;;;;;;;14.76;79.15;98504.03;5032655;28;20045;-43
2023/11/01 07:29:40;;;;;;;7.55;5.22;;;;;;;14.79;79.21;98524.75;5036592;28;20038;-48
2023/11/01 07:32:08;;;;;;;14.20;6.82;;;;;;;14.77;79.55;98505.72;5051817;28;20041;-45
2023/11/01 07:34:35;;;;;;;14.37;7.60;;;;;;;14.76;79.29;98507.47;5043661;28;20045;-45
2023/11/01 07:37:01;;;;;;;14.48;6.40;;;;;;;14.75;79.63;98500.59;5048536;28;20300;-44
2023/11/01 07:39:27;;;;;;;11.70;6.25;;;;;;;14.64;79.29;98476.97;5040805;28;20052;-51
2023/11/01 07:41:53;;;;;;;10.43;6.30;;;;;;;14.69;79.59;98487.09;5033049;28;20119;-50
2023/11/01 07:44:19;;;;;;;16.75;6.75;;;;;;;14.74;79.72;98501.53;5053137;28;20462;-52
2023/11/01 07:46:45;;;;;;;10.80;5.18;;;;;;;14.72;79.74;98499.97;5045161;28;20041;-50
2023/11/01 07:49:11;;;;;;;15.50;7.13;;;;;;;14.71;80.04;98506.13;5049848;28;20099;-48
2023/11/01 07:51:37;;;;;;;9.23;5.50;;;;;;;14.75;80.17;98507.63;5047712;28;20045;-46
2023/11/01 07:54:03;;;;;;;15.30;6.90;;;;;;;14.82;80.09;98503.59;5049606;28;20047;-47
2023/11/01 07:56:30;;;;;;;15.85;6.80;;;;;;;14.88;79.40;98495.31;5056726;28;20043;-48
2023/11/01 07:58:57;;;;;;;15.70;6.03;;;;;;;14.85;79.25;98498.16;5053025;28;20045;-48
2023/11/01 08:01:23;;;;;;;15.80;5.43;;;;;;;14.84;79.60;98523.50;5050546;28;20047;-46
2023/11/01 08:03:49;;;;;;;11.50;5.43;;;;;;;14.78;79.84;98496.91;5033623;28;20041;-46
2023/11/01 08:06:15;;;;;;;16.48;6.78;;;;;;;14.65;80.23;98483.88;5035881;28;20074;-44
2023/11/01 08:08:41;;;;;;;13.18;6.82;;;;;;;14.80;80.03;98495.88;5043711;28;20044;-44
2023/11/01 08:11:07;;;;;;;18.10;6.53;;;;;;;14.77;80.04;98501.31;5042024;28;20052;-49
2023/11/01 08:13:33;;;;;;;13.20;6.43;;;;;;;14.77;80.09;98498.69;5034557;28;20487;-45
2023/11/01 08:15:59;;;;;;;17.83;6.97;;;;;;;14.83;80.18;98505.28;5032625;28;20057;-45
2023/11/01 08:18:25;;;;;;;10.25;5.25;;;;;;;14.83;80.02;98505.28;5032329;28;20135;-46
2023/11/01 08:20:53;;;;;;;12.63;6.22;;;;;;;14.63;80.13;98475.28;5030881;28;20041;-44
2023/11/01 08:23:19;;;;;;;14.43;7.13;;;;;;;14.78;80.56;98496.91;5036165;28;20122;-44
2023/11/01 08:25:45;;;;;;;9.52;6.65;;;;;;;14.83;80.03;98494.81;5037226;28;20032;-49
2023/11/01 08:28:11;;;;;;;11.65;6.53;;;;;;;14.84;80.06;98493.88;5038161;28;20049;-45
2023/11/01 08:30:37;;;;;;;13.57;6.90;;;;;;;14.77;79.70;98484.78;5041177;28;20080;-45
2023/11/01 08:33:03;;;;;;;15.07;7.40;;;;;;;14.70;80.36;98473.94;5034857;28;20421;-45
2023/11/01 08:35:29;;;;;;;11.85;6.53;;;;;;;14.79;80.21;98488.13;5035348;28;20045;-49
2023/11/01 08:37:55;;;;;;;14.00;6.93;;;;;;;14.79;80.09;98490.75;5031908;28;20128;-46
2023/11/01 08:40:22;;;;;;;16.63;6.60;;;;;;;14.88;80.34;98494.47;5033392;28;20037;-45
2023/11/01 08:42:49;;;;;;;15.02;6.72;;;;;;;14.94;79.84;98488.81;5049721;28;20132;-45
2023/11/01 08:45:14;;;;;;;16.60;7.40;;;;;;;15.01;79.69;98492.69;5033932;28;20132;-46
2023/11/01 08:47:42;;;;;;;15.23;7.22;;;;;;;14.98;79.18;98487.66;5036811;28;20045;-46
2023/11/01 08:50:12;;;;;;;13.60;6.65;;;;;;;15.18;79.50;98490.50;5033112;28;20094;-45
2023/11/01 08:52:45;;;;;;;12.85;6.80;;;;;;;15.21;78.30;98458.88;5034712;28;20045;-48
2023/11/01 08:55:12;;;;;;;11.93;6.82;;;;;;;15.34;78.06;98492.03;5036944;28;20118;-48
2023/11/01 08:57:40;;;;;;;11.63;4.95;;;;;;;15.13;77.56;98471.69;5035975;28;20142;-47
2023/11/01 09:00:07;;;;;;;10.85;5.57;;;;;;;15.18;77.57;98485.28;5048638;28;20516;-46
2023/11/01 09:02:33;;;;;;;11.55;5.82;;;;;;;15.16;78.00;98484.56;5031988;28;20492;-49
2023/11/01 09:04:59;;;;;;;11.15;5.55;;;;;;;15.21;77.91;98465.91;5030672;28;20645;-50
2023/11/01 09:07:25;;;;;;;8.02;4.70;;;;;;;15.19;77.45;98441.59;5056487;28;20032;-43
2023/11/01 09:09:53;;;;;;;13.65;6.60;;;;;;;15.39;77.28;98469.78;5056747;28;20028;-49
2023/11/01 09:12:20;;;;;;;12.80;6.70;;;;;;;15.53;76.30;98434.78;5053418;28;20128;-52
2023/11/01 09:14:46;;;;;;;16.88;6.50;;;;;;;15.89;74.95;98460.84;5034737;28;20427;-48
2023/11/01 09:17:13;;;;;;;12.05;6.30;;;;;;;15.92;74.52;98446.66;5036588;28;20044;-49
2023/11/01 09:19:42;;;;;;;15.18;6.45;;;;;;;15.90;74.50;98422.34;5045130;28;20057;-50
2023/11/01 09:22:08;;;;;;;13.20;5.88;;;;;;;16.86;72.70;98444.53;5066879;28;20044;-48
2023/11/01 09:24:34;;;;;;;15.27;6.28;;;;;;;17.54;68.74;98453.88;5042725;28;20045;-53
2023/11/01 09:27:01;;;;;;;10.65;5.95;;;;;;;17.15;68.25;98440.44;5034702;28;20043;-49
2023/11/01 09:29:27;;;;;;;9.35;5.53;;;;;;;17.56;67.61;98447.56;5059195;28;20041;-49
2023/11/01 09:31:53;;;;;;;12.00;5.40;;;;;;;18.04;65.53;98440.03;5041724;28;20581;-54
2023/11/01 09:34:19;;;;;;;10.73;4.70;;;;;;;17.70;65.13;98409.63;5047049;28;20037;-48
2023/11/01 09:36:45;;;;;;;13.55;6.75;;;;;;;17.32;66.44;98439.06;5046761;28;20036;-49
2023/11/01 09:39:11;;;;;;;17.58;6.43;;;;;;;16.83;67.75;98395.75;5049384;28;20049;-49
2023/11/01 09:41:44;;;;;;;13.15;5.20;;;;;;;16.83;68.24;98426.44;5044099;28;20045;-46
2023/11/01 09:44:13;;;;;;;13.38;6.20;;;;;;;16.68;68.92;98425.03;5040970;28;20079;-45
2023/11/01 09:46:39;;;;;;;;;;;;;;;16.65;69.09;98427.88;5050929;28;20037;-51
2023/11/01 09:49:05;;;;;;;14.50;5.65;;;;;;;16.55;69.52;98419.88;5056025;28;20403;-52
2023/11/01 09:51:32;;;;;;;11.23;5.82;;;;;;;16.48;69.71;98410.81;5053949;28;20060;-46
2023/11/01 09:53:58;;;;;;;11.68;5.90;;;;;;;16.60;69.78;98425.63;5048248;28;20041;-44
2023/11/01 09:56:26;;;;;;;14.25;5.70;;;;;;;16.51;69.92;98419.28;5050389;28;20041;-46
2023/11/01 09:58:53;;;;;;;13.30;5.80;;;;;;;16.44;70.24;98412.84;5049198;28;20060;-48
2023/11/01 10:01:20;;;;;;;11.32;5.93;;;;;;;16.42;70.31;98406.06;5050580;28;20306;-48
2023/11/01 10:03:45;;;;;;;9.40;5.55;;;;;;;16.40;70.40;98414.03;5038846;28;20037;-48
2023/11/01 10:06:12;;;;;;;13.48;5.82;;;;;;;16.35;70.62;98418.81;5036874;28;20577;-47
2023/11/01 10:08:38;;;;;;;15.48;5.90;;;;;;;16.39;70.84;98409.75;5033611;28;20044;-48
2023/11/01 10:11:04;;;;;;;12.00;6.10;;;;;;;16.36;70.68;98409.16;5042417;28;20145;-48
2023/11/01 10:13:30;;;;;;;12.45;5.82;;;;;;;16.46;70.59;98410.94;5039158;28;20128;-47
2023/11/01 10:15:56;;;;;;;17.85;5.90;;;;;;;16.61;70.51;98411.53;5045106;28;20044;-45
2023/11/01 10:18:22;;;;;;;12.52;5.78;;;;;;;16.62;70.35;98407.97;5061876;28;20036;-49
2023/11/01 10:20:48;;;;;;;19.27;5.53;;;;;;;16.76;69.78;98405.06;5040330;28;20052;-52
2023/11/01 10:23:14;;;;;;;13.35;6.05;;;;;;;16.70;69.86;98397.69;5037962;28;20029;-54
2023/11/01 10:25:45;;;;;;;12.85;6.07;;;;;;;18.08;67.20;98401.97;5039099;28;20041;-48
2023/11/01 10:28:13;;;;;;;11.90;5.30;;;;;;;19.82;60.35;98390.78;5042324;28;20073;-53
2023/11/01 10:30:44;;;;;;;12.07;5.38;;;;;;;20.78;57.57;98380.84;5046074;28;20461;-50
2023/11/01 10:33:10;;;;;;;10.73;5.18;;;;;;;21.77;55.26;98385.88;5039840;28;21032;-52
2023/11/01 10:35:36;;;;;;;9.90;5.07;;;;;;;22.09;53.33;98380.00;5037706;28;20043;-48
2023/11/01 10:38:02;;;;;;;12.90;4.95;;;;;;;22.83;51.61;98375.84;5034943;28;20041;-49
2023/11/01 10:40:31;;;;;;;12.75;5.03;;;;;;;23.68;50.35;98396.72;5041768;28;20041;-52
2023/11/01 10:43:02;;;;;;;10.93;5.30;;;;;;;24.25;48.63;98394.81;5052178;28;20036;-51
2023/11/01 10:45:29;;;;;;;8.13;4.93;;;;;;;24.89;46.21;98391.09;5043393;28;20076;-51
2023/11/01 10:47:55;;;;;;;10.73;4.60;;;;;;;25.69;45.18;98390.72;5040930;28;20033;-52
2023/11/01 10:50:22;;;;;;;8.30;5.47;;;;;;;26.16;43.66;98366.44;5044320;28;20043;-46
2023/11/01 10:52:48;;;;;;;8.95;4.65;;;;;;;26.42;42.60;98361.50;5035729;28;20187;-44
2023/11/01 10:55:38;;;;;;;11.88;4.57;;;;;;;27.02;41.45;98378.22;5035190;28;20037;-47
2023/11/01 10:58:05;;;;;;;11.02;4.82;;;;;;;27.09;40.63;98365.81;5046703;28;20067;-47
2023/11/01 11:00:38;;;;;;;11.27;5.10;;;;;;;25.77;42.21;98381.81;5029130;28;20040;-45
2023/11/01 11:03:13;;;;;;;13.15;4.75;;;;;;;26.00;41.99;98380.78;5015654;28;20072;-46
2023/11/01 11:05:40;;;;;;;8.68;3.95;;;;;;;26.14;41.29;98376.47;5035053;28;20118;-49
2023/11/01 11:08:09;;;;;;;6.75;4.40;;;;;;;26.38;40.84;98378.06;5052656;28;20496;-47
2023/11/01 11:10:39;;;;;;;9.88;4.50;;;;;;;26.53;41.08;98370.88;5033865;28;20061;-50
2023/11/01 11:13:08;;;;;;;10.98;4.70;;;;;;;26.91;40.21;98368.88;5029811;28;20060;-48
2023/11/01 11:15:56;;;;;;;9.55;4.43;;;;;;;26.79;39.97;98365.03;5048085;28;20041;-45
2023/11/01 11:18:27;;;;;;;;;;;;;;;26.23;40.67;98363.88;5038013;28;20041;-47
2023/11/01 11:20:55;;;;;;;10.07;4.40;;;;;;;25.70;41.90;98366.56;5039285;28;20015;-45
2023/11/01 11:23:31;;;;;;;7.47;4.72;;;;;;;24.99;42.36;98355.47;5042276;28;20037;-45